createdAt,value
2018-01-15T00:01:30.392Z,101937.73
2018-01-15T00:03:58.755Z,101949.14
2018-01-15T00:06:27.121Z,101945.11
2018-01-15T00:08:55.493Z,101943.58
2018-01-15T00:11:23.970Z,101942.95
2018-01-15T00:13:52.402Z,101932.67
2018-01-15T00:16:20.842Z,101935.55
2018-01-15T00:18:49.261Z,101927.97
2018-01-15T00:21:17.619Z,101926.17
2018-01-15T00:23:45.998Z,101919.89
2018-01-15T00:26:14.439Z,101922.31
2018-01-15T00:28:42.865Z,101912.48
2018-01-15T00:31:11.244Z,101923.66
2018-01-15T00:33:39.615Z,101917.78
2018-01-15T00:36:07.968Z,101907.32
2018-01-15T00:38:36.376Z,101917.71
2018-01-15T00:41:04.747Z,101917.05
2018-01-15T00:43:33.117Z,101915.48
2018-01-15T00:46:01.524Z,101910.30
2018-01-15T00:48:29.892Z,101910.42
2018-01-15T00:50:58.270Z,101917.92
2018-01-15T00:53:26.637Z,101902.56
2018-01-15T00:55:55.007Z,101896.89
2018-01-15T00:58:23.356Z,101900.36
2018-01-15T01:00:52.204Z,101887.48
2018-01-15T01:03:20.689Z,101896.12
2018-01-15T01:05:49.158Z,101878.36
2018-01-15T01:08:17.532Z,101894.41
2018-01-15T01:10:46.376Z,101882.77
2018-01-15T01:13:15.127Z,101878.24
2018-01-15T01:15:43.509Z,101870.87
2018-01-15T01:18:11.876Z,101859.01
2018-01-15T01:20:40.240Z,101862.17
2018-01-15T01:23:08.640Z,101855.08
2018-01-15T01:25:37.056Z,101862.09
2018-01-15T01:28:05.479Z,101860.67
2018-01-15T01:30:33.838Z,101852.76
2018-01-15T01:33:02.256Z,101846.22
2018-01-15T01:35:30.634Z,101843.90
2018-01-15T01:37:59.012Z,101845.97
2018-01-15T01:40:27.424Z,101831.02
2018-01-15T01:42:55.793Z,101826.02
2018-01-15T01:45:24.157Z,101822.33
2018-01-15T01:47:52.988Z,101815.14
2018-01-15T01:50:21.515Z,101822.78
2018-01-15T01:52:49.900Z,101814.64
2018-01-15T01:55:18.279Z,101812.71
2018-01-15T01:57:46.882Z,101796.73
2018-01-15T02:00:15.227Z,101797.72
2018-01-15T02:02:43.708Z,101789.43
2018-01-15T02:05:12.063Z,101779.27
2018-01-15T02:07:40.419Z,101783.59
2018-01-15T02:10:08.784Z,101778.41
2018-01-15T02:12:37.641Z,101783.88
2018-01-15T02:15:05.991Z,101779.14
2018-01-15T02:17:34.381Z,101757.75
2018-01-15T02:20:02.749Z,101761.52
2018-01-15T02:22:31.153Z,101754.65
2018-01-15T02:24:59.539Z,101756.61
2018-01-15T02:27:27.921Z,101755.06
2018-01-15T02:29:56.288Z,101757.67
2018-01-15T02:32:24.643Z,101747.86
2018-01-15T02:34:53.027Z,101737.21
2018-01-15T02:37:21.416Z,101743.19
2018-01-15T02:39:49.794Z,101741.80
2018-01-15T02:42:18.288Z,101740.30
2018-01-15T02:44:46.670Z,101737.63
2018-01-15T02:47:15.236Z,101733.00
2018-01-15T02:49:43.604Z,101724.98
2018-01-15T02:52:11.981Z,101723.79
2018-01-15T02:54:40.365Z,101718.71
2018-01-15T02:57:08.746Z,101716.83
2018-01-15T02:59:37.143Z,101714.02
2018-01-15T03:02:05.497Z,101708.79
2018-01-15T03:04:33.856Z,101698.53
2018-01-15T03:07:02.608Z,101685.56
2018-01-15T03:09:31.092Z,101694.28
2018-01-15T03:11:59.465Z,101682.62
2018-01-15T03:14:27.936Z,101687.34
2018-01-15T03:16:56.291Z,101690.85
2018-01-15T03:19:24.650Z,101686.31
2018-01-15T03:21:53.011Z,101681.86
2018-01-15T03:24:21.933Z,101676.95
2018-01-15T03:26:50.300Z,101675.34
2018-01-15T03:29:18.738Z,101657.37
2018-01-15T03:31:47.197Z,101647.49
2018-01-15T03:34:15.560Z,101651.55
2018-01-15T03:36:43.920Z,101645.35
2018-01-15T03:39:12.280Z,101649.02
2018-01-15T03:41:41.426Z,101648.72
2018-01-15T03:44:09.775Z,101633.70
2018-01-15T03:46:38.184Z,101630.72
2018-01-15T03:49:06.543Z,101628.54
2018-01-15T03:51:34.938Z,101630.58
2018-01-15T03:54:03.336Z,101623.17
2018-01-15T03:56:31.699Z,101615.38
2018-01-15T03:59:00.096Z,101616.61
2018-01-15T04:01:28.480Z,101619.83
2018-01-15T04:03:56.843Z,101614.02
2018-01-15T04:06:25.258Z,101621.82
2018-01-15T04:08:54.004Z,101622.17
2018-01-15T04:11:22.574Z,101613.11
2018-01-15T04:13:50.992Z,101602.45
2018-01-15T04:16:19.431Z,101597.66
2018-01-15T04:18:47.823Z,101596.37
2018-01-15T04:21:16.221Z,101593.66
2018-01-15T04:23:44.583Z,101597.23
2018-01-15T04:26:12.946Z,101595.05
2018-01-15T04:28:41.339Z,101587.39
2018-01-15T04:31:09.700Z,101592.02
2018-01-15T04:33:38.104Z,101575.02
2018-01-15T04:36:06.465Z,101564.73
2018-01-15T04:38:34.825Z,101561.98
2018-01-15T04:41:03.200Z,101559.64
2018-01-15T04:43:31.775Z,101554.58
2018-01-15T04:46:00.152Z,101551.36
2018-01-15T04:48:28.611Z,101546.40
2018-01-15T04:50:57.455Z,101549.57
2018-01-15T04:53:25.854Z,101543.19
2018-01-15T04:55:54.327Z,101539.42
2018-01-15T04:58:22.694Z,101530.89
2018-01-15T05:00:51.084Z,101521.23
2018-01-15T05:03:19.432Z,101517.89
2018-01-15T05:05:47.809Z,101521.01
2018-01-15T05:08:16.169Z,101533.16
2018-01-15T05:10:44.945Z,101513.31
2018-01-15T05:13:13.300Z,101513.05
2018-01-15T05:15:41.763Z,101512.21
2018-01-15T05:18:10.158Z,101507.20
2018-01-15T05:20:38.709Z,101510.88
2018-01-15T05:23:07.081Z,101504.28
2018-01-15T05:25:35.440Z,101493.70
2018-01-15T05:28:03.832Z,101495.16
2018-01-15T05:30:32.356Z,101496.92
2018-01-15T05:33:00.828Z,101493.57
2018-01-15T05:35:29.245Z,101488.41
2018-01-15T05:37:58.000Z,101483.12
2018-01-15T05:40:26.388Z,101485.49
2018-01-15T05:42:54.849Z,101477.78
2018-01-15T05:45:23.261Z,101485.50
2018-01-15T05:47:51.708Z,101471.92
2018-01-15T05:50:20.071Z,101477.75
2018-01-15T05:52:48.468Z,101474.02
2018-01-15T05:55:16.947Z,101466.45
2018-01-15T05:57:45.312Z,101471.36
2018-01-15T06:00:13.886Z,101472.82
2018-01-15T06:02:42.344Z,101457.98
2018-01-15T06:05:11.280Z,101459.53
2018-01-15T06:07:39.694Z,101454.98
2018-01-15T06:10:08.025Z,101465.18
2018-01-15T06:12:36.420Z,101461.17
2018-01-15T06:15:04.800Z,101456.69
2018-01-15T06:17:33.183Z,101453.34
2018-01-15T06:20:01.678Z,101450.05
2018-01-15T06:22:30.036Z,101447.93
2018-01-15T06:24:58.436Z,101441.33
2018-01-15T06:27:26.824Z,101448.11
2018-01-15T06:29:55.280Z,101454.48
2018-01-15T06:32:23.639Z,101437.92
2018-01-15T06:34:52.005Z,101432.13
2018-01-15T06:37:20.512Z,101432.77
2018-01-15T06:39:48.864Z,101435.58
2018-01-15T06:44:52.229Z,101437.41
2018-01-15T06:47:20.691Z,101437.12
2018-01-15T06:49:49.066Z,101427.61
2018-01-15T06:52:17.828Z,101425.20
2018-01-15T06:54:46.310Z,101419.61
2018-01-15T06:57:14.768Z,101419.95
2018-01-15T06:59:43.147Z,101415.41
2018-01-15T07:02:11.911Z,101415.70
2018-01-15T07:04:40.345Z,101422.59
2018-01-15T07:07:08.727Z,101417.79
2018-01-15T07:09:37.120Z,101416.73
2018-01-15T07:12:05.520Z,101415.25
2018-01-15T07:14:33.868Z,101403.03
2018-01-15T07:17:02.258Z,101394.11
2018-01-15T07:19:30.640Z,101390.98
2018-01-15T07:21:59.004Z,101397.44
2018-01-15T07:24:27.362Z,101380.95
2018-01-15T07:26:55.868Z,101385.75
2018-01-15T07:29:24.228Z,101378.73
2018-01-15T07:31:52.593Z,101390.94
2018-01-15T07:34:20.948Z,101391.75
2018-01-15T07:36:49.407Z,101376.42
2018-01-15T07:39:17.792Z,101381.98
2018-01-15T07:41:46.264Z,101369.53
2018-01-15T07:44:14.636Z,101376.02
2018-01-15T07:46:43.823Z,101378.51
2018-01-15T07:49:12.171Z,101389.83
2018-01-15T07:51:40.539Z,101370.88
2018-01-15T07:54:09.394Z,101362.89
2018-01-15T07:56:37.760Z,101354.39
2018-01-15T07:59:06.159Z,101356.00
2018-01-15T08:01:35.076Z,101337.18
2018-01-15T08:04:03.827Z,101333.14
2018-01-15T08:06:32.207Z,101343.80
2018-01-15T08:09:00.574Z,101336.16
2018-01-15T08:11:28.955Z,101316.34
2018-01-15T08:13:57.335Z,101319.42
2018-01-15T08:16:25.703Z,101309.23
2018-01-15T08:18:54.077Z,101311.14
2018-01-15T08:21:22.467Z,101319.05
2018-01-15T08:23:50.815Z,101311.76
2018-01-15T08:26:20.120Z,101310.02
2018-01-15T08:28:48.530Z,101303.66
2018-01-15T08:31:16.905Z,101302.05
2018-01-15T08:33:45.281Z,101296.81
2018-01-15T08:36:13.632Z,101287.36
2018-01-15T08:38:41.987Z,101284.00
2018-01-15T08:41:10.814Z,101277.36
2018-01-15T08:43:39.190Z,101271.34
2018-01-15T08:46:07.548Z,101267.95
2018-01-15T08:48:35.953Z,101265.54
2018-01-15T08:51:04.674Z,101271.84
2018-01-15T08:53:33.119Z,101277.33
2018-01-15T08:56:01.503Z,101268.02
2018-01-15T08:58:29.856Z,101265.59
2018-01-15T09:00:58.268Z,101257.91
2018-01-15T09:03:26.612Z,101253.52
2018-01-15T09:06:00.999Z,101254.02
2018-01-15T09:08:29.350Z,101241.39
2018-01-15T09:10:57.712Z,101247.97
2018-01-15T09:13:26.100Z,101243.11
2018-01-15T09:15:54.675Z,101242.38
2018-01-15T09:18:23.064Z,101228.72
2018-01-15T09:20:51.430Z,101224.48
2018-01-15T09:23:19.767Z,101222.04
2018-01-15T09:25:48.600Z,101221.23
2018-01-15T09:28:16.979Z,101213.77
2018-01-15T09:30:45.368Z,101210.03
2018-01-15T09:33:13.795Z,101204.20
2018-01-15T09:35:42.673Z,101206.56
2018-01-15T09:38:11.449Z,101204.06
2018-01-15T09:40:39.796Z,101213.19
2018-01-15T09:43:08.170Z,101194.11
2018-01-15T09:45:36.536Z,101183.69
2018-01-15T09:48:04.880Z,101194.66
2018-01-15T09:50:33.648Z,101173.42
2018-01-15T09:53:02.004Z,101182.53
2018-01-15T09:55:30.402Z,101178.91
2018-01-15T09:57:58.729Z,101165.70
2018-01-15T10:00:27.088Z,101155.54
2018-01-15T10:02:55.910Z,101143.99
2018-01-15T10:05:24.285Z,101140.28
2018-01-15T10:07:52.692Z,101138.52
2018-01-15T10:10:21.044Z,101130.58
2018-01-15T10:12:49.400Z,101110.86
2018-01-15T10:15:17.833Z,101109.44
2018-01-15T10:17:46.302Z,101110.86
2018-01-15T10:20:14.668Z,101097.83
2018-01-15T10:22:43.069Z,101109.17
2018-01-15T10:25:11.431Z,101093.48
2018-01-15T10:27:39.816Z,101084.38
2018-01-15T10:30:08.196Z,101087.25
2018-01-15T10:32:36.569Z,101085.96
2018-01-15T10:35:04.974Z,101078.52
2018-01-15T10:37:33.349Z,101058.27
2018-01-15T10:40:01.734Z,101054.75
2018-01-15T10:42:30.270Z,101051.95
2018-01-15T10:44:58.619Z,101051.37
2018-01-15T10:47:27.392Z,101045.53
2018-01-15T10:49:55.760Z,101044.08
2018-01-15T10:52:24.106Z,101034.00
2018-01-15T10:54:52.449Z,101029.51
2018-01-15T10:57:20.815Z,101011.09
2018-01-15T10:59:49.599Z,101007.90
2018-01-15T11:02:18.439Z,100996.63
2018-01-15T11:04:46.805Z,100994.91
2018-01-15T11:07:15.154Z,100979.13
2018-01-15T11:09:43.904Z,100984.21
2018-01-15T11:12:12.268Z,100964.97
2018-01-15T11:14:40.612Z,100965.41
2018-01-15T11:17:09.019Z,100974.52
2018-01-15T11:22:05.784Z,100949.55
2018-01-15T11:24:34.239Z,100946.44
2018-01-15T11:27:03.590Z,100945.80
2018-01-15T11:29:31.966Z,100940.06
2018-01-15T11:32:00.443Z,100931.11
2018-01-15T11:34:28.792Z,100932.74
2018-01-15T11:36:57.284Z,100921.51
2018-01-15T11:39:25.673Z,100922.38
2018-01-15T11:41:54.108Z,100919.36
2018-01-15T11:44:22.624Z,100904.90
2018-01-15T11:46:50.987Z,100894.33
2018-01-15T11:49:19.379Z,100882.60
2018-01-15T11:51:47.733Z,100873.06
2018-01-15T11:54:16.076Z,100870.17
2018-01-15T11:56:44.856Z,100873.50
2018-01-15T11:59:13.355Z,100872.86
2018-01-15T12:01:42.105Z,100861.00
2018-01-15T12:04:10.456Z,100851.34
2018-01-15T12:06:38.815Z,100847.31
2018-01-15T12:09:07.247Z,100849.07
2018-01-15T12:11:35.712Z,100823.92
2018-01-15T12:14:04.115Z,100822.72
2018-01-15T12:16:32.441Z,100817.45
2018-01-15T12:19:00.864Z,100805.88
2018-01-15T12:21:29.231Z,100799.30
2018-01-15T12:23:57.595Z,100796.42
2018-01-15T12:26:25.943Z,100783.68
2018-01-15T12:28:54.363Z,100769.95
2018-01-15T12:31:22.718Z,100771.05
2018-01-15T12:33:51.220Z,100767.50
2018-01-15T12:36:19.602Z,100765.48
2018-01-15T12:38:47.945Z,100760.95
2018-01-15T12:41:16.304Z,100758.45
2018-01-15T12:43:44.669Z,100749.58
2018-01-15T12:46:13.024Z,100738.91
2018-01-15T12:48:41.389Z,100740.19
2018-01-15T12:51:09.790Z,100725.06
2018-01-15T12:53:38.130Z,100726.56
2018-01-15T12:56:06.510Z,100721.91
2018-01-15T12:58:34.867Z,100716.41
2018-01-15T13:01:03.715Z,100705.07
2018-01-15T13:03:32.157Z,100703.44
2018-01-15T13:06:07.087Z,100697.73
2018-01-15T13:11:46.261Z,100679.66
2018-01-15T13:14:14.678Z,100674.00
2018-01-15T13:16:43.124Z,100674.37
2018-01-15T13:19:11.470Z,100673.58
2018-01-15T13:21:39.833Z,100665.64
2018-01-15T13:24:08.576Z,100677.62
2018-01-15T13:26:36.945Z,100672.95
2018-01-15T13:29:05.338Z,100656.12
2018-01-15T13:31:34.259Z,100668.75
2018-01-15T13:34:02.746Z,100666.69
2018-01-15T13:36:31.570Z,100648.39
2018-01-15T13:39:00.312Z,100647.21
2018-01-15T13:41:28.768Z,100637.53
2018-01-15T13:43:57.124Z,100636.64
2018-01-15T13:46:25.475Z,100621.67
2018-01-15T13:48:53.823Z,100624.17
2018-01-15T13:51:22.211Z,100618.55
2018-01-15T13:53:51.050Z,100615.86
2018-01-15T13:56:19.403Z,100607.83
2018-01-15T13:58:47.833Z,100608.12
2018-01-15T14:01:16.187Z,100606.63
2018-01-15T14:03:44.539Z,100589.91
2018-01-15T14:06:12.925Z,100595.73
2018-01-15T14:08:41.285Z,100591.27
2018-01-15T14:11:10.028Z,100589.56
2018-01-15T14:13:38.507Z,100589.41
2018-01-15T14:16:06.856Z,100577.91
2018-01-15T14:18:35.215Z,100572.24
2018-01-15T14:21:04.051Z,100570.16
2018-01-15T14:23:32.458Z,100558.75
2018-01-15T14:26:00.838Z,100557.09
2018-01-15T14:28:29.235Z,100545.03
2018-01-15T14:30:58.006Z,100542.26
2018-01-15T14:33:26.376Z,100539.90
2018-01-15T14:35:54.741Z,100528.80
2018-01-15T14:38:23.109Z,100522.91
2018-01-15T14:40:51.510Z,100510.48
2018-01-15T14:43:19.976Z,100509.62
2018-01-15T14:45:48.355Z,100511.55
2018-01-15T14:48:16.708Z,100500.74
2018-01-15T14:50:45.069Z,100498.56
2018-01-15T14:53:13.489Z,100486.12
2018-01-15T14:55:42.592Z,100481.88
2018-01-15T14:58:11.082Z,100482.38
2018-01-15T15:00:39.543Z,100476.20
2018-01-15T15:03:07.915Z,100460.22
2018-01-15T15:05:36.280Z,100469.80
2018-01-15T15:08:05.545Z,100455.02
2018-01-15T15:10:34.481Z,100446.13
2018-01-15T15:13:02.836Z,100438.69
2018-01-15T15:15:31.212Z,100432.30
2018-01-15T15:17:59.629Z,100413.41
2018-01-15T15:20:28.000Z,100415.66
2018-01-15T15:22:56.352Z,100415.30
2018-01-15T15:25:24.729Z,100410.76
2018-01-15T15:27:53.077Z,100401.61
2018-01-15T15:30:21.467Z,100399.33
2018-01-15T15:32:50.221Z,100387.22
2018-01-15T15:35:18.687Z,100371.77
2018-01-15T15:37:47.039Z,100368.44
2018-01-15T15:40:15.493Z,100374.52
2018-01-15T15:42:44.238Z,100360.02
2018-01-15T15:45:12.723Z,100357.32
2018-01-15T15:47:41.085Z,100346.44
2018-01-15T15:50:09.443Z,100340.86
2018-01-15T15:52:37.812Z,100343.53
2018-01-15T15:55:06.200Z,100326.32
2018-01-15T15:57:34.577Z,100319.16
2018-01-15T16:00:02.958Z,100313.98
2018-01-15T16:02:31.372Z,100314.86
2018-01-15T16:04:59.790Z,100300.63
2018-01-15T16:07:28.594Z,100308.30
2018-01-15T16:09:56.994Z,100310.22
2018-01-15T16:12:25.347Z,100285.08
2018-01-15T16:14:53.881Z,100278.23
2018-01-15T16:17:22.259Z,100283.55
2018-01-15T16:19:50.608Z,100278.02
2018-01-15T16:22:33.829Z,100266.83
2018-01-15T16:25:02.246Z,100255.13
2018-01-15T16:27:30.728Z,100242.43
2018-01-15T16:29:59.175Z,100238.96
2018-01-15T16:32:27.563Z,100239.30
2018-01-15T16:34:56.067Z,100241.80
2018-01-15T16:37:24.454Z,100246.67
2018-01-15T16:39:52.834Z,100230.02
2018-01-15T16:42:21.982Z,100226.98
2018-01-15T16:44:50.812Z,100217.17
2018-01-15T16:47:19.176Z,100211.92
2018-01-15T16:49:47.771Z,100215.12
2018-01-15T16:52:16.137Z,100198.34
2018-01-15T16:54:44.508Z,100197.10
2018-01-15T16:57:12.889Z,100195.48
2018-01-15T16:59:41.256Z,100200.55
2018-01-15T17:02:09.650Z,100182.41
2018-01-15T17:04:38.045Z,100181.48
2018-01-15T17:07:06.423Z,100178.70
2018-01-15T17:09:34.763Z,100171.88
2018-01-15T17:12:03.159Z,100158.28
2018-01-15T17:14:31.551Z,100161.59
2018-01-15T17:16:59.940Z,100147.49
2018-01-15T17:19:28.416Z,100149.73
2018-01-15T17:21:56.783Z,100150.92
2018-01-15T17:24:25.141Z,100131.39
2018-01-15T17:26:53.525Z,100127.64
2018-01-15T17:29:21.925Z,100122.95
2018-01-15T17:31:50.284Z,100119.27
2018-01-15T17:34:18.658Z,100102.31
2018-01-15T17:36:47.068Z,100099.94
2018-01-15T17:39:15.436Z,100096.62
2018-01-15T17:41:43.808Z,100087.02
2018-01-15T17:44:12.167Z,100091.77
2018-01-15T17:46:40.580Z,100087.07
2018-01-15T17:49:09.019Z,100080.51
2018-01-15T17:51:37.391Z,100068.95
2018-01-15T17:54:05.767Z,100062.61
2018-01-15T17:56:34.237Z,100057.73
2018-01-15T17:59:02.638Z,100050.59
2018-01-15T18:01:30.990Z,100043.48
2018-01-15T18:03:59.758Z,100048.48
2018-01-15T18:06:28.137Z,100043.11
2018-01-15T18:08:56.607Z,100033.61
2018-01-15T18:11:24.971Z,100045.12
2018-01-15T18:13:53.323Z,100031.73
2018-01-15T18:16:21.718Z,100041.84
2018-01-15T18:18:50.085Z,100018.79
2018-01-15T18:21:18.446Z,100018.89
2018-01-15T18:23:48.102Z,100029.23
2018-01-15T18:26:16.562Z,100017.06
2018-01-15T18:28:44.924Z,100018.62
2018-01-15T18:31:13.373Z,100002.41
2018-01-15T18:33:41.798Z,100006.44
2018-01-15T18:36:10.228Z,99990.16
2018-01-15T18:38:38.700Z,99990.48
2018-01-15T18:41:07.059Z,99994.86
2018-01-15T18:43:35.423Z,99990.75
2018-01-15T18:46:03.807Z,99973.98
2018-01-15T18:48:32.200Z,99976.70
2018-01-15T18:51:00.678Z,99967.71
2018-01-15T18:53:29.032Z,99967.91
2018-01-15T18:55:57.404Z,99954.55
2018-01-15T18:58:25.805Z,99961.03
2018-01-15T19:00:54.156Z,99950.33
2018-01-15T19:03:22.515Z,99935.20
2018-01-15T19:05:51.271Z,99943.05
2018-01-15T19:08:19.623Z,99933.84
2018-01-15T19:10:47.972Z,99928.36
2018-01-15T19:13:16.348Z,99929.16
2018-01-15T19:15:45.092Z,99931.90
2018-01-15T19:18:13.443Z,99921.45
2018-01-15T19:20:41.819Z,99930.80
2018-01-15T19:23:10.165Z,99904.81
2018-01-15T19:25:38.512Z,99890.88
2018-01-15T19:28:06.855Z,99890.65
2018-01-15T19:30:35.208Z,99878.36
2018-01-15T19:33:03.560Z,99862.59
2018-01-15T19:35:37.427Z,99858.26
2018-01-15T19:38:05.912Z,99837.52
2018-01-15T19:40:34.281Z,99828.47
2018-01-15T19:43:08.155Z,99824.86
2018-01-15T19:45:42.436Z,99813.53
2018-01-15T19:48:16.204Z,99802.25
2018-01-15T19:53:57.263Z,99786.34
2018-01-15T19:56:31.178Z,99773.33
2018-01-15T19:59:05.207Z,99778.36
2018-01-15T20:01:39.119Z,99763.41
2018-01-15T20:04:13.021Z,99750.13
2018-01-15T20:06:46.912Z,99748.64
2018-01-15T20:09:20.824Z,99736.98
2018-01-15T20:11:49.196Z,99741.33
2018-01-15T20:14:17.963Z,99733.69
2018-01-15T20:16:46.325Z,99728.44
2018-01-15T20:19:32.124Z,99720.66
2018-01-15T20:22:00.487Z,99715.72
2018-01-15T20:24:28.972Z,99706.98
2018-01-15T20:26:57.668Z,99705.66
2018-01-15T20:29:26.031Z,99689.14
2018-01-15T20:31:54.410Z,99691.86
2018-01-15T20:34:22.798Z,99675.89
2018-01-15T20:36:51.233Z,99668.45
2018-01-15T20:39:19.738Z,99661.03
2018-01-15T20:41:48.127Z,99648.56
2018-01-15T20:44:16.508Z,99635.87
2018-01-15T20:46:44.880Z,99642.63
2018-01-15T20:49:13.265Z,99643.41
2018-01-15T20:51:41.636Z,99644.39
2018-01-15T20:54:10.042Z,99622.32
2018-01-15T20:56:38.404Z,99613.97
2018-01-15T20:59:06.775Z,99603.52
2018-01-15T21:01:35.305Z,99601.77
2018-01-15T21:04:03.655Z,99586.77
2018-01-15T21:06:32.021Z,99578.50
2018-01-15T21:09:00.525Z,99579.33
2018-01-15T21:11:29.302Z,99583.66
2018-01-15T21:13:57.676Z,99565.12
2018-01-15T21:16:26.275Z,99541.56
2018-01-15T21:18:54.738Z,99534.20
2018-01-15T21:21:23.124Z,99526.00
2018-01-15T21:23:51.596Z,99534.87
2018-01-15T21:26:19.959Z,99531.64
2018-01-15T21:28:48.323Z,99519.77
2018-01-15T21:31:16.707Z,99508.33
2018-01-15T21:33:45.075Z,99489.60
2018-01-15T21:36:13.439Z,99484.12
2018-01-15T21:38:41.959Z,99481.13
2018-01-15T21:41:10.348Z,99472.45
2018-01-15T21:43:38.725Z,99464.34
2018-01-15T21:46:07.103Z,99454.66
2018-01-15T21:48:35.520Z,99449.85
2018-01-15T21:51:04.278Z,99447.60
2018-01-15T21:53:32.631Z,99446.83
2018-01-15T21:56:01.058Z,99440.80
2018-01-15T21:58:29.817Z,99421.47
2018-01-15T22:00:58.186Z,99412.29
2018-01-15T22:03:26.547Z,99408.13
2018-01-15T22:05:54.955Z,99418.84
2018-01-15T22:08:23.361Z,99420.88
2018-01-15T22:10:51.828Z,99411.03
2018-01-15T22:13:20.195Z,99408.41
2018-01-15T22:15:51.640Z,99397.33
2018-01-15T22:18:20.209Z,99398.20
2018-01-15T22:20:48.580Z,99404.95
2018-01-15T22:23:16.954Z,99392.91
2018-01-15T22:25:45.314Z,99386.95
2018-01-15T22:28:13.680Z,99379.70
2018-01-15T22:30:42.118Z,99377.00
2018-01-15T22:33:10.496Z,99369.67
2018-01-15T22:35:38.973Z,99354.13
2018-01-15T22:38:07.339Z,99343.36
2018-01-15T22:40:35.735Z,99340.03
2018-01-15T22:43:04.143Z,99325.95
2018-01-15T22:45:38.368Z,99335.30
2018-01-15T22:48:07.834Z,99317.08
2018-01-15T22:50:36.227Z,99302.48
2018-01-15T22:53:04.609Z,99310.42
2018-01-15T22:55:32.996Z,99308.91
2018-01-15T22:58:01.375Z,99275.31
2018-01-15T23:00:30.162Z,99278.11
2018-01-15T23:02:58.527Z,99264.39
2018-01-15T23:05:26.904Z,99255.16
2018-01-15T23:07:55.280Z,99247.83
2018-01-15T23:10:27.076Z,99254.80
2018-01-15T23:12:55.831Z,99245.34
2018-01-15T23:15:24.199Z,99233.61
2018-01-15T23:17:52.570Z,99227.92
2018-01-15T23:20:20.931Z,99228.36
2018-01-15T23:22:49.316Z,99215.83
2018-01-15T23:25:17.691Z,99213.52
2018-01-15T23:27:46.128Z,99202.91
2018-01-15T23:30:14.882Z,99204.66
2018-01-15T23:32:43.261Z,99186.39
2018-01-15T23:35:11.627Z,99184.00
2018-01-15T23:37:40.055Z,99191.81
2018-01-15T23:40:09.020Z,99174.74
2018-01-15T23:42:37.400Z,99161.41
2018-01-15T23:45:15.786Z,99149.66
2018-01-15T23:47:44.216Z,99151.22
2018-01-15T23:50:13.073Z,99144.25
2018-01-15T23:52:41.442Z,99147.06
2018-01-15T23:55:09.815Z,99142.45
2018-01-15T23:57:38.205Z,99134.41
